Time;durP1;ratioP1;P1;durP2;ratioP2;P2;SDS_P1;SDS_P2;PMS_P1;PMS_P2;Temp;Humidity;BMP_temperature;BMP_pressure;BME280_temperature;BME280_humidity;BME280_pressure;Samples;Min_cycle;Max_cycle;Signal;HPM_P1;HPM_P2
2021/12/03 00:00:52;;;;;;;41.97;31.47;;;;;;;;;;5014070;28;20799;-61
2021/12/03 00:03:18;;;;;;;36.53;30.27;;;;;;;;;;5015206;28;20936;-62
2021/12/03 00:05:45;;;;;;;42.17;32.37;;;;;;;;;;5015624;28;20411;-62
2021/12/03 00:08:11;;;;;;;40.50;31.43;;;;;;;;;;5015459;28;20943;-62
2021/12/03 00:10:38;;;;;;;38.77;30.87;;;;;;;;;;5013798;28;20522;-61
2021/12/03 00:13:05;;;;;;;42.67;32.73;;;;;;;;;;5015051;28;20411;-62
2021/12/03 00:15:31;;;;;;;45.73;34.87;;;;;;;;;;5014389;28;20497;-62
2021/12/03 00:17:57;;;;;;;40.23;33.00;;;;;;;;;;5015444;28;20499;-61
2021/12/03 00:20:24;;;;;;;45.13;32.00;;;;;;;;;;5015432;28;20822;-61
2021/12/03 00:22:52;;;;;;;39.43;32.93;;;;;;;;;;5016764;28;20168;-61
2021/12/03 00:25:18;;;;;;;40.37;32.00;;;;;;;;;;5014897;28;20463;-61
2021/12/03 00:27:44;;;;;;;43.83;32.77;;;;;;;;;;5014412;28;20946;-61
2021/12/03 00:30:12;;;;;;;42.33;31.90;;;;;;;;;;5016059;28;20948;-61
2021/12/03 00:32:38;;;;;;;38.87;32.40;;;;;;;;;;5015384;28;20416;-61
2021/12/03 00:35:05;;;;;;;44.90;31.97;;;;;;;;;;5016056;28;20997;-62
2021/12/03 00:37:31;;;;;;;43.07;32.50;;;;;;;;;;5014280;28;20843;-61
2021/12/03 00:39:57;;;;;;;42.47;31.93;;;;;;;;;;5015644;28;20778;-62
2021/12/03 00:42:25;;;;;;;48.80;33.03;;;;;;;;;;5017401;28;20462;-61
2021/12/03 00:44:54;;;;;;;46.90;32.43;;;;;;;;;;5013686;28;20841;-61
2021/12/03 00:47:20;;;;;;;43.83;33.00;;;;;;;;;;5014733;28;20468;-62
2021/12/03 00:49:46;;;;;;;39.20;32.37;;;;;;;;;;5014571;28;20407;-61
2021/12/03 00:52:12;;;;;;;45.77;34.00;;;;;;;;;;5013322;28;20492;-61
2021/12/03 00:54:38;;;;;;;42.40;32.77;;;;;;;;;;5013416;28;20561;-61
2021/12/03 00:57:05;;;;;;;45.33;35.97;;;;;;;;;;5014720;28;20557;-61
2021/12/03 00:59:31;;;;;;;50.30;36.97;;;;;;;;;;5014609;28;20176;-61
2021/12/03 01:01:57;;;;;;;52.30;37.93;;;;;;;;;;5015046;28;20496;-61
2021/12/03 01:04:23;;;;;;;53.97;36.80;;;;;;;;;;5013154;28;20978;-61
2021/12/03 01:06:49;;;;;;;51.07;36.20;;;;;;;;;;5014596;28;20180;-61
2021/12/03 01:09:15;;;;;;;47.87;36.60;;;;;;;;;;5014061;28;20187;-61
2021/12/03 01:11:42;;;;;;;54.37;39.13;;;;;;;;;;5015450;28;20525;-61
2021/12/03 01:14:08;;;;;;;48.77;38.73;;;;;;;;;;5015667;28;20501;-61
2021/12/03 01:16:34;;;;;;;51.57;38.07;;;;;;;;;;5015581;28;20407;-59
2021/12/03 01:19:00;;;;;;;59.83;40.20;;;;;;;;;;5014924;28;20434;-61
2021/12/03 01:21:26;;;;;;;53.83;39.77;;;;;;;;;;5014218;28;20433;-61
2021/12/03 01:23:53;;;;;;;56.17;38.87;;;;;;;;;;5015311;28;20419;-61
2021/12/03 01:26:20;;;;;;;55.37;40.17;;;;;;;;;;5018241;28;20414;-61
2021/12/03 01:28:46;;;;;;;53.93;40.43;;;;;;;;;;5018288;28;20498;-61
2021/12/03 01:31:12;;;;;;;55.13;39.77;;;;;;;;;;5018096;28;21008;-61
2021/12/03 01:33:39;;;;;;;63.77;42.00;;;;;;;;;;5018315;28;20456;-61
2021/12/03 01:36:05;;;;;;;68.00;43.60;;;;;;;;;;5018116;28;20419;-61
2021/12/03 01:38:31;;;;;;;63.07;45.33;;;;;;;;;;5018589;28;20415;-61
2021/12/03 01:40:57;;;;;;;66.80;44.80;;;;;;;;;;5016686;28;20461;-61
2021/12/03 01:43:25;;;;;;;74.70;47.97;;;;;;;;;;5018376;28;20472;-61
2021/12/03 01:45:52;;;;;;;72.27;47.30;;;;;;;;;;5016815;28;20448;-61
2021/12/03 01:48:18;;;;;;;73.07;45.93;;;;;;;;;;5017825;28;20415;-61
2021/12/03 01:50:45;;;;;;;71.67;47.87;;;;;;;;;;5017709;28;20490;-61
2021/12/03 01:53:12;;;;;;;73.40;47.17;;;;;;;;;;5018140;28;20423;-61
2021/12/03 01:55:39;;;;;;;80.60;48.90;;;;;;;;;;5017765;28;20414;-61
2021/12/03 01:58:05;;;;;;;84.50;49.43;;;;;;;;;;5017111;28;20781;-61
2021/12/03 02:00:54;;;;;;;86.90;50.80;;;;;;;;;;5017512;28;20426;-61
2021/12/03 02:03:22;;;;;;;91.77;50.23;;;;;;;;;;5018685;28;20878;-61
2021/12/03 02:05:48;;;;;;;101.33;50.77;;;;;;;;;;5020326;28;20887;-61
2021/12/03 02:08:14;;;;;;;96.93;50.83;;;;;;;;;;5017802;28;20562;-62
2021/12/03 02:10:41;;;;;;;100.30;52.33;;;;;;;;;;5018766;28;20583;-61
2021/12/03 02:13:07;;;;;;;103.23;52.93;;;;;;;;;;5016925;28;20415;-59
2021/12/03 02:15:33;;;;;;;106.50;53.07;;;;;;;;;;5018330;28;20818;-59
2021/12/03 02:17:59;;;;;;;113.53;52.23;;;;;;;;;;5016902;28;20525;-59
2021/12/03 02:20:25;;;;;;;112.17;54.23;;;;;;;;;;5018379;28;20459;-61
2021/12/03 02:22:52;;;;;;;106.63;53.50;;;;;;;;;;5018611;28;20894;-62
2021/12/03 02:25:20;;;;;;;115.57;52.43;;;;;;;;;;5018265;28;20785;-62
2021/12/03 02:27:50;;;;;;;114.17;53.67;;;;;;;;;;5017558;28;20418;-61
2021/12/03 02:30:17;;;;;;;117.50;53.13;;;;;;;;;;5017639;28;20418;-60
2021/12/03 02:32:43;;;;;;;106.70;52.07;;;;;;;;;;5017018;28;20424;-59
2021/12/03 02:35:09;;;;;;;120.17;52.70;;;;;;;;;;5014989;28;20458;-62
2021/12/03 02:37:35;;;;;;;125.17;53.93;;;;;;;;;;5015870;28;20675;-58
2021/12/03 02:40:01;;;;;;;115.90;52.47;;;;;;;;;;5015922;28;20419;-59
2021/12/03 02:42:27;;;;;;;122.60;51.80;;;;;;;;;;5015890;28;21021;-60
2021/12/03 02:44:53;;;;;;;122.50;49.60;;;;;;;;;;5015628;28;20427;-60
2021/12/03 02:47:19;;;;;;;125.30;53.47;;;;;;;;;;5017404;28;20234;-60
2021/12/03 02:49:45;;;;;;;114.77;50.93;;;;;;;;;;5017029;28;20202;-60
2021/12/03 02:52:11;;;;;;;113.97;48.43;;;;;;;;;;5015393;28;20464;-60
2021/12/03 02:54:37;;;;;;;117.67;49.63;;;;;;;;;;5016602;28;20200;-60
2021/12/03 02:57:03;;;;;;;120.20;49.97;;;;;;;;;;5016757;28;20423;-60
2021/12/03 02:59:32;;;;;;;102.80;46.87;;;;;;;;;;5016628;28;20294;-60
2021/12/03 03:01:58;;;;;;;111.23;49.53;;;;;;;;;;5016599;28;20430;-60
2021/12/03 03:04:24;;;;;;;111.47;47.47;;;;;;;;;;5016690;28;20424;-60
2021/12/03 03:06:50;;;;;;;110.93;47.60;;;;;;;;;;5017195;28;20179;-60
2021/12/03 03:09:16;;;;;;;98.57;43.73;;;;;;;;;;5015152;28;20259;-60
2021/12/03 03:11:42;;;;;;;103.50;43.90;;;;;;;;;;5016865;28;20801;-60
2021/12/03 03:14:08;;;;;;;109.20;45.90;;;;;;;;;;5016140;28;20456;-60
2021/12/03 03:16:34;;;;;;;97.40;44.07;;;;;;;;;;5014534;28;20180;-61
2021/12/03 03:19:08;;;;;;;99.50;43.67;;;;;;;;;;5014426;28;20207;-60
2021/12/03 03:21:34;;;;;;;103.23;42.33;;;;;;;;;;5015703;28;20434;-60
2021/12/03 03:24:00;;;;;;;87.37;41.63;;;;;;;;;;5015989;28;20414;-60
2021/12/03 03:26:26;;;;;;;92.00;42.30;;;;;;;;;;5015491;28;20813;-60
2021/12/03 03:28:56;;;;;;;87.97;39.77;;;;;;;;;;5014026;28;20422;-60
2021/12/03 03:31:22;;;;;;;96.60;43.87;;;;;;;;;;5015301;28;20199;-60
2021/12/03 03:33:48;;;;;;;99.13;41.93;;;;;;;;;;5013995;28;20446;-60
2021/12/03 03:36:13;;;;;;;87.43;42.63;;;;;;;;;;5015314;28;20178;-61
2021/12/03 03:38:39;;;;;;;96.93;42.63;;;;;;;;;;5015238;28;20183;-61
2021/12/03 03:41:05;;;;;;;97.97;42.87;;;;;;;;;;5015084;28;20223;-60
2021/12/03 03:43:31;;;;;;;91.50;41.63;;;;;;;;;;5015169;28;20179;-60
2021/12/03 03:45:57;;;;;;;85.97;39.20;;;;;;;;;;5015803;28;20179;-60
2021/12/03 03:48:24;;;;;;;91.13;38.50;;;;;;;;;;5013702;28;20922;-60
2021/12/03 03:50:50;;;;;;;81.90;37.13;;;;;;;;;;5013666;28;20208;-60
2021/12/03 03:53:16;;;;;;;99.80;38.63;;;;;;;;;;5015344;28;20418;-60
2021/12/03 03:55:42;;;;;;;86.87;36.47;;;;;;;;;;5015282;28;20414;-60
2021/12/03 03:58:08;;;;;;;83.07;37.23;;;;;;;;;;5015353;28;20176;-61
2021/12/03 04:00:41;;;;;;;87.40;37.53;;;;;;;;;;5015395;28;20176;-61
2021/12/03 04:03:07;;;;;;;87.93;37.20;;;;;;;;;;5015377;28;20171;-61
2021/12/03 04:05:33;;;;;;;89.63;36.30;;;;;;;;;;5014025;28;20461;-60
2021/12/03 04:07:59;;;;;;;87.07;37.17;;;;;;;;;;5014037;28;20422;-60
2021/12/03 04:10:25;;;;;;;85.23;36.93;;;;;;;;;;5015804;28;20180;-60
2021/12/03 04:12:51;;;;;;;82.07;37.20;;;;;;;;;;5014988;28;20180;-61
2021/12/03 04:15:17;;;;;;;83.63;35.67;;;;;;;;;;5014902;28;20810;-60
2021/12/03 04:17:43;;;;;;;83.20;36.67;;;;;;;;;;5015515;28;20787;-60
2021/12/03 04:20:10;;;;;;;76.23;35.17;;;;;;;;;;5015561;28;20407;-60
2021/12/03 04:22:36;;;;;;;74.33;33.10;;;;;;;;;;5015005;28;20448;-60
2021/12/03 04:25:04;;;;;;;65.50;30.53;;;;;;;;;;5015010;28;20410;-60
2021/12/03 04:27:30;;;;;;;74.17;33.83;;;;;;;;;;5015029;28;20422;-61
2021/12/03 04:29:56;;;;;;;62.47;32.43;;;;;;;;;;5013632;28;20533;-61
2021/12/03 04:32:25;;;;;;;65.83;31.60;;;;;;;;;;5014663;28;20465;-60
2021/12/03 04:34:51;;;;;;;68.23;31.77;;;;;;;;;;5013595;28;20295;-60
2021/12/03 04:37:17;;;;;;;77.67;32.30;;;;;;;;;;5014902;28;20837;-60
2021/12/03 04:39:43;;;;;;;67.10;32.57;;;;;;;;;;5014756;28;20415;-60
2021/12/03 04:42:09;;;;;;;61.57;32.33;;;;;;;;;;5013304;28;20219;-61
2021/12/03 04:44:35;;;;;;;60.17;30.33;;;;;;;;;;5015332;28;20191;-61
2021/12/03 04:47:01;;;;;;;67.33;31.97;;;;;;;;;;5015676;28;20180;-61
2021/12/03 04:49:27;;;;;;;57.60;30.67;;;;;;;;;;5015248;28;20407;-60
2021/12/03 04:51:55;;;;;;;61.47;30.30;;;;;;;;;;5013705;28;20531;-60
2021/12/03 04:54:21;;;;;;;57.97;29.40;;;;;;;;;;5014929;28;20450;-61
2021/12/03 04:56:47;;;;;;;58.77;29.77;;;;;;;;;;5014653;28;20421;-60
2021/12/03 04:59:13;;;;;;;57.97;30.33;;;;;;;;;;5014291;28;20501;-60
2021/12/03 05:01:40;;;;;;;52.30;28.90;;;;;;;;;;5014403;28;20513;-60
2021/12/03 05:04:05;;;;;;;46.63;27.57;;;;;;;;;;5014804;28;20267;-60
2021/12/03 05:06:52;;;;;;;50.33;27.37;;;;;;;;;;5015668;28;20438;-60
2021/12/03 05:09:17;;;;;;;45.47;25.53;;;;;;;;;;5014557;28;20191;-60
2021/12/03 05:11:43;;;;;;;51.17;26.67;;;;;;;;;;5013211;28;20447;-60
2021/12/03 05:14:09;;;;;;;47.13;28.37;;;;;;;;;;5013155;28;20199;-60
2021/12/03 05:16:35;;;;;;;48.00;27.57;;;;;;;;;;5013274;28;20636;-60
2021/12/03 05:19:01;;;;;;;49.10;29.53;;;;;;;;;;5014046;28;20637;-61
2021/12/03 05:21:27;;;;;;;47.20;28.27;;;;;;;;;;5012906;28;20612;-61
2021/12/03 05:23:53;;;;;;;46.73;28.43;;;;;;;;;;5012716;28;20186;-61
2021/12/03 05:26:19;;;;;;;44.57;27.37;;;;;;;;;;5013800;28;20259;-61
2021/12/03 05:28:45;;;;;;;47.50;28.30;;;;;;;;;;5012661;28;20188;-62
2021/12/03 05:31:11;;;;;;;49.83;28.80;;;;;;;;;;5012545;28;20214;-61
2021/12/03 05:33:37;;;;;;;51.77;28.97;;;;;;;;;;5013956;28;20496;-61
2021/12/03 05:36:03;;;;;;;49.23;28.97;;;;;;;;;;5012909;28;20494;-61
2021/12/03 05:38:29;;;;;;;54.40;30.70;;;;;;;;;;5014401;28;20482;-61
2021/12/03 05:40:55;;;;;;;59.27;31.10;;;;;;;;;;5014159;28;20985;-62
2021/12/03 05:43:21;;;;;;;52.33;30.00;;;;;;;;;;5014252;28;20683;-62
2021/12/03 05:45:47;;;;;;;55.00;30.53;;;;;;;;;;5013752;28;20180;-62
2021/12/03 05:48:13;;;;;;;60.97;30.57;;;;;;;;;;5012472;28;20648;-61
2021/12/03 05:50:40;;;;;;;54.50;27.27;;;;;;;;;;5014153;28;20427;-61
2021/12/03 05:53:06;;;;;;;52.13;30.20;;;;;;;;;;5012509;28;20430;-61
2021/12/03 05:55:32;;;;;;;61.40;30.43;;;;;;;;;;5013933;28;20472;-61
2021/12/03 05:57:58;;;;;;;54.33;30.37;;;;;;;;;;5012974;28;20472;-61
2021/12/03 06:00:29;;;;;;;50.40;27.00;;;;;;;;;;5013884;28;21029;-61
2021/12/03 06:02:57;;;;;;;56.77;29.77;;;;;;;;;;5012981;28;20418;-61
2021/12/03 06:05:24;;;;;;;45.13;25.17;;;;;;;;;;5013974;28;20498;-61
2021/12/03 06:07:50;;;;;;;46.93;27.70;;;;;;;;;;5012870;28;20419;-61
2021/12/03 06:10:16;;;;;;;47.97;26.63;;;;;;;;;;5015494;28;20418;-61
2021/12/03 06:12:42;;;;;;;45.63;27.77;;;;;;;;;;5017468;28;20518;-61
2021/12/03 06:15:08;;;;;;;53.43;27.17;;;;;;;;;;5017842;28;20206;-62
2021/12/03 06:17:34;;;;;;;44.07;26.77;;;;;;;;;;5016854;28;20432;-61
2021/12/03 06:20:00;;;;;;;49.63;26.73;;;;;;;;;;5016581;28;20510;-61
2021/12/03 06:22:26;;;;;;;52.47;26.93;;;;;;;;;;5016485;28;20200;-61
2021/12/03 06:24:52;;;;;;;46.53;29.17;;;;;;;;;;5017506;28;20873;-61
2021/12/03 06:27:22;;;;;;;49.27;27.70;;;;;;;;;;5018313;28;20873;-61
2021/12/03 06:29:48;;;;;;;54.77;27.40;;;;;;;;;;5016890;28;20992;-61
2021/12/03 06:32:14;;;;;;;47.97;28.27;;;;;;;;;;5018217;28;20435;-61
2021/12/03 06:34:40;;;;;;;51.00;28.13;;;;;;;;;;5017186;28;20195;-61
2021/12/03 06:37:05;;;;;;;51.10;28.47;;;;;;;;;;5016100;28;20802;-61
2021/12/03 06:39:32;;;;;;;49.43;27.50;;;;;;;;;;5015928;28;20187;-62
2021/12/03 06:41:57;;;;;;;53.77;29.13;;;;;;;;;;5017505;28;20219;-60
2021/12/03 06:44:25;;;;;;;50.23;27.73;;;;;;;;;;5017845;28;20774;-60
2021/12/03 06:46:53;;;;;;;54.23;27.77;;;;;;;;;;5017104;28;20690;-60
2021/12/03 06:49:19;;;;;;;50.93;27.60;;;;;;;;;;5015608;28;20533;-60
2021/12/03 06:51:45;;;;;;;61.23;29.93;;;;;;;;;;5015398;28;20971;-60
2021/12/03 06:54:12;;;;;;;53.10;27.23;;;;;;;;;;5015390;28;20207;-60
2021/12/03 06:56:47;;;;;;;60.93;28.77;;;;;;;;;;5016600;28;20414;-60
2021/12/03 06:59:13;;;;;;;53.57;28.10;;;;;;;;;;5017278;28;20890;-59
2021/12/03 07:01:39;;;;;;;48.60;26.50;;;;;;;;;;5015237;28;20435;-60
2021/12/03 07:04:05;;;;;;;50.70;26.87;;;;;;;;;;5016598;28;20184;-60
2021/12/03 07:06:31;;;;;;;51.73;28.77;;;;;;;;;;5016913;28;20180;-60
2021/12/03 07:08:57;;;;;;;45.40;24.73;;;;;;;;;;5016648;28;20456;-60
2021/12/03 07:11:23;;;;;;;54.20;27.50;;;;;;;;;;5016413;28;20196;-60
2021/12/03 07:13:49;;;;;;;47.80;25.23;;;;;;;;;;5015296;28;20655;-60
2021/12/03 07:16:16;;;;;;;48.93;26.43;;;;;;;;;;5016350;28;20520;-60
2021/12/03 07:18:43;;;;;;;49.80;26.63;;;;;;;;;;5015242;28;20176;-60
2021/12/03 07:21:09;;;;;;;51.97;24.80;;;;;;;;;;5015548;28;20427;-60
2021/12/03 07:23:35;;;;;;;41.93;24.10;;;;;;;;;;5016596;28;20918;-60
2021/12/03 07:26:02;;;;;;;43.20;23.00;;;;;;;;;;5014681;28;20415;-60
2021/12/03 07:28:29;;;;;;;42.97;22.70;;;;;;;;;;5016030;28;20184;-60
2021/12/03 07:30:55;;;;;;;58.00;34.67;;;;;;;;;;5016214;28;20886;-60
2021/12/03 07:33:21;;;;;;;41.67;21.13;;;;;;;;;;5016143;28;20449;-60
2021/12/03 07:35:47;;;;;;;39.80;22.23;;;;;;;;;;5015914;28;20422;-60
2021/12/03 07:38:15;;;;;;;36.30;20.07;;;;;;;;;;5015891;28;20426;-60
2021/12/03 07:40:42;;;;;;;38.57;21.47;;;;;;;;;;5016132;28;20442;-60
2021/12/03 07:43:08;;;;;;;33.17;20.37;;;;;;;;;;5016402;28;20914;-62
2021/12/03 07:45:34;;;;;;;30.87;18.80;;;;;;;;;;5014778;28;20498;-59
2021/12/03 07:48:00;;;;;;;37.23;18.63;;;;;;;;;;5016013;28;20423;-60
2021/12/03 07:50:26;;;;;;;32.10;16.07;;;;;;;;;;5015679;28;20415;-60
2021/12/03 07:52:52;;;;;;;24.83;15.70;;;;;;;;;;5015540;28;20411;-60
2021/12/03 07:55:18;;;;;;;27.83;15.57;;;;;;;;;;5015285;28;20460;-60
2021/12/03 07:57:44;;;;;;;29.80;15.03;;;;;;;;;;5014433;28;20176;-60
2021/12/03 08:00:10;;;;;;;28.17;14.13;;;;;;;;;;5016303;28;20409;-61
2021/12/03 08:02:36;;;;;;;28.07;13.63;;;;;;;;;;5014073;28;20303;-61
2021/12/03 08:05:02;;;;;;;31.63;17.43;;;;;;;;;;5014385;28;20451;-60
2021/12/03 08:07:29;;;;;;;32.97;21.07;;;;;;;;;;5016120;28;20176;-59
2021/12/03 08:09:55;;;;;;;28.17;13.43;;;;;;;;;;5014738;28;20942;-60
2021/12/03 08:12:21;;;;;;;25.60;13.40;;;;;;;;;;5016646;28;20435;-61
2021/12/03 08:14:47;;;;;;;20.13;12.03;;;;;;;;;;5014251;28;20223;-60
2021/12/03 08:17:13;;;;;;;26.10;12.60;;;;;;;;;;5015711;28;20180;-60
2021/12/03 08:19:39;;;;;;;23.20;12.30;;;;;;;;;;5015649;28;20171;-60
2021/12/03 08:22:05;;;;;;;31.73;17.07;;;;;;;;;;5015224;28;20514;-60
2021/12/03 08:24:31;;;;;;;26.20;11.50;;;;;;;;;;5015596;28;20422;-60
2021/12/03 08:26:57;;;;;;;22.80;11.20;;;;;;;;;;5013702;28;20422;-60
2021/12/03 08:29:23;;;;;;;22.70;10.43;;;;;;;;;;5015337;28;20184;-61
2021/12/03 08:31:49;;;;;;;21.67;9.13;;;;;;;;;;5015137;28;20512;-60
2021/12/03 08:34:15;;;;;;;23.03;10.87;;;;;;;;;;5014949;28;20288;-61
2021/12/03 08:36:41;;;;;;;19.90;9.67;;;;;;;;;;5015047;28;20184;-60
2021/12/03 08:39:07;;;;;;;17.97;8.83;;;;;;;;;;5013266;28;20187;-60
2021/12/03 08:41:36;;;;;;;20.13;10.03;;;;;;;;;;5015143;28;20452;-60
2021/12/03 08:44:04;;;;;;;26.43;9.97;;;;;;;;;;5014061;28;20180;-61
2021/12/03 08:49:05;;;;;;;15.40;7.90;;;;;;;;;;5014003;28;20415;-61
2021/12/03 08:51:46;;;;;;;16.57;7.30;;;;;;;;;;5013906;28;20433;-60
2021/12/03 08:56:56;;;;;;;21.70;10.40;;;;;;;;;;5014011;28;20452;-60
2021/12/03 08:59:22;;;;;;;20.83;7.70;;;;;;;;;;5013654;28;20438;-60
2021/12/03 09:01:48;;;;;;;20.83;8.20;;;;;;;;;;5012399;28;20605;-60
2021/12/03 09:04:14;;;;;;;21.10;8.23;;;;;;;;;;5013633;28;20180;-60
2021/12/03 09:06:41;;;;;;;14.87;7.27;;;;;;;;;;5012348;28;20670;-60
2021/12/03 09:09:08;;;;;;;19.33;7.10;;;;;;;;;;5013584;28;20413;-60
2021/12/03 09:11:37;;;;;;;14.10;6.47;;;;;;;;;;5012218;28;20532;-60
2021/12/03 09:14:11;;;;;;;14.10;5.93;;;;;;;;;;5013486;28;20454;-60
2021/12/03 09:16:37;;;;;;;15.53;5.97;;;;;;;;;;5013769;28;20399;-59
2021/12/03 09:19:07;;;;;;;15.27;7.03;;;;;;;;;;5013473;28;20407;-60
2021/12/03 09:21:34;;;;;;;17.13;6.83;;;;;;;;;;5012150;28;20450;-60
2021/12/03 09:24:10;;;;;;;14.80;5.63;;;;;;;;;;5011994;28;20431;-60
2021/12/03 09:26:40;;;;;;;17.77;6.10;;;;;;;;;;5013463;28;20395;-60
2021/12/03 09:29:08;;;;;;;22.93;7.23;;;;;;;;;;5013230;28;20414;-63
2021/12/03 09:31:37;;;;;;;14.00;7.10;;;;;;;;;;5013325;28;20866;-66
2021/12/03 09:34:10;;;;;;;26.87;9.67;;;;;;;;;;5013207;28;20486;-60
2021/12/03 09:36:40;;;;;;;20.20;9.10;;;;;;;;;;5011977;28;20426;-62
2021/12/03 09:39:06;;;;;;;24.87;8.97;;;;;;;;;;5013558;28;20414;-63
2021/12/03 09:41:32;;;;;;;26.53;12.80;;;;;;;;;;5013089;28;20454;-60
2021/12/03 09:43:59;;;;;;;17.93;7.90;;;;;;;;;;5013072;28;20234;-61
2021/12/03 09:46:26;;;;;;;23.43;10.77;;;;;;;;;;5015380;28;20278;-61
2021/12/03 09:51:33;;;;;;;20.13;9.20;;;;;;;;;;5017012;28;20496;-62
2021/12/03 09:54:19;;;;;;;23.97;8.13;;;;;;;;;;5017401;28;20643;-60
2021/12/03 09:56:45;;;;;;;15.40;7.77;;;;;;;;;;5016024;28;20406;-60
2021/12/03 10:01:55;;;;;;;13.30;6.20;;;;;;;;;;5017053;28;20434;-60
2021/12/03 10:15:13;;;;;;;16.97;5.30;;;;;;;;;;5016792;28;20442;-60
2021/12/03 10:20:27;;;;;;;10.13;4.80;;;;;;;;;;5017050;28;20451;-61
2021/12/03 10:32:38;;;;;;;10.70;5.20;;;;;;;;;;4975089;28;20428;-60
2021/12/03 10:34:31;;;;;;;8.67;5.00;;;;;;;;;;4994778;28;20454;-60
2021/12/03 10:39:38;;;;;;;18.67;6.70;;;;;;;;;;5016767;28;20391;-60
2021/12/03 10:42:28;;;;;;;24.60;5.70;;;;;;;;;;5016013;28;20524;-60
2021/12/03 10:48:08;;;;;;;12.20;5.40;;;;;;;;;;5016294;28;20539;-60
2021/12/03 11:07:06;;;;;;;11.67;4.67;;;;;;;;;;4996442;28;21001;-60
2021/12/03 11:36:48;;;;;;;12.97;5.07;;;;;;;;;;5015439;28;20164;-60
2021/12/03 12:13:59;;;;;;;9.67;5.37;;;;;;;;;;5014693;28;20294;-60
2021/12/03 12:46:56;;;;;;;8.93;5.13;;;;;;;;;;5013755;28;20206;-60
2021/12/03 13:08:15;;;;;;;10.03;5.33;;;;;;;;;;5013581;28;20698;-60
2021/12/03 14:18:40;;;;;;;7.93;5.03;;;;;;;;;;5013951;28;20207;-61
2021/12/03 14:35:37;;;;;;;12.57;6.03;;;;;;;;;;5017012;28;20202;-61
2021/12/03 14:43:24;;;;;;;8.33;4.27;;;;;;;;;;5018852;28;20434;-62
2021/12/03 14:46:11;;;;;;;9.13;5.50;;;;;;;;;;5027909;28;20418;-62
2021/12/03 15:00:17;;;;;;;6.30;4.70;;;;;;;;;;5018646;28;20388;-62
2021/12/03 15:03:03;;;;;;;7.43;4.67;;;;;;;;;;5021821;28;20154;-62
2021/12/03 15:05:39;;;;;;;5.90;3.80;;;;;;;;;;5031528;28;20422;-62
2021/12/03 15:08:06;;;;;;;6.27;4.97;;;;;;;;;;5031280;28;20413;-62
2021/12/03 15:10:55;;;;;;;8.33;4.10;;;;;;;;;;5023639;28;20410;-61
2021/12/03 15:26:57;;;;;;;11.73;4.87;;;;;;;;;;5016066;28;20179;-61
2021/12/03 15:29:45;;;;;;;6.90;4.53;;;;;;;;;;5016041;28;20413;-61
2021/12/03 15:32:12;;;;;;;7.60;5.63;;;;;;;;;;5015516;28;20191;-61
2021/12/03 15:35:06;;;;;;;8.83;5.70;;;;;;;;;;5033408;28;20470;-61
2021/12/03 15:37:42;;;;;;;8.97;5.30;;;;;;;;;;5036163;28;20507;-61
2021/12/03 16:04:29;;;;;;;6.90;4.20;;;;;;;;;;5028121;28;20215;-64
2021/12/03 16:14:46;;;;;;;5.37;4.00;;;;;;;;;;5014659;28;20211;-63
2021/12/03 16:20:24;;;;;;;5.83;4.23;;;;;;;;;;5015503;28;20387;-61
2021/12/03 16:26:29;;;;;;;8.20;4.50;;;;;;;;;;5015704;28;20262;-62
2021/12/03 16:44:49;;;;;;;9.17;4.13;;;;;;;;;;5015788;28;20988;-61
2021/12/03 16:52:14;;;;;;;4.93;4.33;;;;;;;;;;5016060;28;20422;-61
2021/12/03 16:57:07;;;;;;;6.77;4.03;;;;;;;;;;5015513;28;20453;-61
2021/12/03 16:59:33;;;;;;;9.00;4.57;;;;;;;;;;5013420;28;20188;-62
2021/12/03 17:02:05;;;;;;;5.97;3.87;;;;;;;;;;5015124;28;20411;-61
2021/12/03 17:15:13;;;;;;;11.80;7.40;;;;;;;;;;5016404;28;20501;-61
2021/12/03 17:31:46;;;;;;;27.00;12.93;;;;;;;;;;5016602;28;20406;-61
2021/12/03 17:58:39;;;;;;;13.30;9.73;;;;;;;;;;5016021;28;20430;-63
2021/12/03 18:01:48;;;;;;;13.37;9.30;;;;;;;;;;5016629;28;20655;-63
2021/12/03 18:04:07;;;;;;;13.37;10.60;;;;;;;;;;5013477;28;20438;-62
2021/12/03 18:12:15;;;;;;;8.97;7.23;;;;;;;;;;5018979;28;20182;-63
2021/12/03 18:15:13;;;;;;;12.07;8.13;;;;;;;;;;5018405;28;20458;-63
2021/12/03 18:50:24;;;;;;;15.17;9.80;;;;;;;;;;5017356;28;20164;-63
2021/12/03 18:55:29;;;;;;;28.67;17.93;;;;;;;;;;5017013;28;20216;-62
2021/12/03 18:57:59;;;;;;;12.70;9.57;;;;;;;;;;5016516;28;20182;-62
2021/12/03 19:00:28;;;;;;;11.73;9.10;;;;;;;;;;5015503;28;20406;-61
2021/12/03 19:02:56;;;;;;;17.60;13.70;;;;;;;;;;5016341;28;20703;-62
2021/12/03 19:08:12;;;;;;;10.83;8.30;;;;;;;;;;5017149;28;20164;-62
2021/12/03 19:10:45;;;;;;;7.30;5.60;;;;;;;;;;5017477;28;20445;-61
2021/12/03 19:13:16;;;;;;;10.23;9.03;;;;;;;;;;5017084;28;20160;-62
2021/12/03 19:15:43;;;;;;;9.73;7.20;;;;;;;;;;5016444;28;20561;-62
2021/12/03 19:18:09;;;;;;;16.37;12.97;;;;;;;;;;5015537;28;20207;-62
2021/12/03 19:20:40;;;;;;;11.17;7.13;;;;;;;;;;5016288;28;20414;-62
2021/12/03 19:23:06;;;;;;;20.17;13.37;;;;;;;;;;5016211;28;20246;-62
2021/12/03 19:25:32;;;;;;;11.63;9.40;;;;;;;;;;5016245;28;20466;-62
2021/12/03 19:27:58;;;;;;;14.37;11.50;;;;;;;;;;5016445;28;20176;-62
2021/12/03 19:30:24;;;;;;;17.53;11.67;;;;;;;;;;5016725;28;20202;-61
2021/12/03 19:32:50;;;;;;;20.20;14.13;;;;;;;;;;5014761;28;20926;-62
2021/12/03 19:35:16;;;;;;;14.53;11.90;;;;;;;;;;5016059;28;20204;-62
2021/12/03 19:37:43;;;;;;;32.50;25.97;;;;;;;;;;5016493;28;20172;-61
2021/12/03 19:40:11;;;;;;;18.33;14.97;;;;;;;;;;5015900;28;20722;-62
2021/12/03 19:42:43;;;;;;;28.57;20.20;;;;;;;;;;5016052;28;20184;-62
2021/12/03 19:45:13;;;;;;;23.83;15.27;;;;;;;;;;5016916;28;20435;-62
2021/12/03 19:47:53;;;;;;;20.87;15.00;;;;;;;;;;5026089;28;20652;-62
2021/12/03 19:52:56;;;;;;;20.80;16.13;;;;;;;;;;5023469;28;20180;-63
2021/12/03 19:55:22;;;;;;;26.63;17.93;;;;;;;;;;5023006;28;20473;-63
2021/12/03 19:57:48;;;;;;;22.57;15.43;;;;;;;;;;5031870;28;20483;-62
2021/12/03 20:00:14;;;;;;;70.23;49.63;;;;;;;;;;5030601;28;20419;-63
2021/12/03 20:02:41;;;;;;;19.47;17.53;;;;;;;;;;5023508;28;20663;-63
2021/12/03 20:05:07;;;;;;;15.30;13.07;;;;;;;;;;5014406;28;20439;-62
2021/12/03 20:07:33;;;;;;;12.80;11.03;;;;;;;;;;5015242;28;20186;-62
2021/12/03 20:10:10;;;;;;;18.83;13.17;;;;;;;;;;5015322;28;20640;-63
2021/12/03 20:12:36;;;;;;;13.27;11.40;;;;;;;;;;5015013;28;20469;-63
2021/12/03 20:15:06;;;;;;;12.33;10.60;;;;;;;;;;5014801;28;20477;-63
2021/12/03 20:17:35;;;;;;;9.50;7.63;;;;;;;;;;5014914;28;20172;-62
2021/12/03 20:20:03;;;;;;;8.63;7.43;;;;;;;;;;5015198;28;20226;-63
2021/12/03 20:22:47;;;;;;;9.77;8.77;;;;;;;;;;5015112;28;20176;-63
2021/12/03 20:27:48;;;;;;;11.57;6.23;;;;;;;;;;5015452;28;20711;-63
2021/12/03 20:30:19;;;;;;;8.83;6.93;;;;;;;;;;5014923;28;20222;-63
2021/12/03 20:38:28;;;;;;;10.60;6.40;;;;;;;;;;5010231;28;20184;-63
2021/12/03 20:40:59;;;;;;;7.40;5.37;;;;;;;;;;5014914;28;20605;-63
2021/12/03 20:46:02;;;;;;;7.33;5.13;;;;;;;;;;5014753;28;20915;-62
2021/12/03 20:48:40;;;;;;;7.20;5.47;;;;;;;;;;5015257;28;20164;-63
2021/12/03 20:53:56;;;;;;;4.83;4.33;;;;;;;;;;5016592;28;20485;-63
2021/12/03 21:09:51;;;;;;;7.17;6.03;;;;;;;;;;5016680;28;20390;-63
2021/12/03 21:12:24;;;;;;;6.77;5.53;;;;;;;;;;5015239;28;20419;-63
2021/12/03 21:15:05;;;;;;;9.10;6.83;;;;;;;;;;5014999;28;20238;-63
2021/12/03 21:20:08;;;;;;;13.93;9.40;;;;;;;;;;5016475;28;20273;-62
2021/12/03 21:22:37;;;;;;;11.07;8.00;;;;;;;;;;5015523;28;20168;-63
2021/12/03 21:25:07;;;;;;;14.20;10.13;;;;;;;;;;5015875;28;20439;-64
2021/12/03 21:27:41;;;;;;;8.73;6.53;;;;;;;;;;5017078;28;20411;-63
2021/12/03 21:32:54;;;;;;;7.67;6.30;;;;;;;;;;5019203;28;20456;-63
2021/12/03 21:43:23;;;;;;;11.03;7.50;;;;;;;;;;5022043;28;20419;-62
2021/12/03 21:45:49;;;;;;;8.93;7.87;;;;;;;;;;5022335;28;20415;-63
2021/12/03 21:48:16;;;;;;;13.93;8.40;;;;;;;;;;5021890;28;20188;-63
2021/12/03 21:50:42;;;;;;;16.03;8.80;;;;;;;;;;5022117;28;20477;-62
2021/12/03 21:53:08;;;;;;;14.37;9.80;;;;;;;;;;5022568;28;20176;-63
2021/12/03 21:55:36;;;;;;;11.57;9.60;;;;;;;;;;5021757;28;20474;-63
2021/12/03 21:58:04;;;;;;;11.67;8.97;;;;;;;;;;5025138;28;20172;-63
2021/12/03 22:00:30;;;;;;;11.70;8.63;;;;;;;;;;5023254;28;20443;-63
2021/12/03 22:02:56;;;;;;;11.30;9.33;;;;;;;;;;5023390;28;20180;-62
2021/12/03 22:05:22;;;;;;;11.73;7.90;;;;;;;;;;5020786;28;20199;-62
2021/12/03 22:07:48;;;;;;;10.10;6.47;;;;;;;;;;5021661;28;20187;-62
2021/12/03 22:10:13;;;;;;;8.23;6.40;;;;;;;;;;5021930;28;20183;-62
2021/12/03 22:12:39;;;;;;;7.60;6.77;;;;;;;;;;5022015;28;20180;-62
2021/12/03 22:15:06;;;;;;;7.13;6.30;;;;;;;;;;5019911;28;20212;-62
2021/12/03 22:17:32;;;;;;;6.53;5.83;;;;;;;;;;5019110;28;20251;-62
2021/12/03 22:19:58;;;;;;;7.23;5.80;;;;;;;;;;5016393;28;20414;-62
2021/12/03 22:22:24;;;;;;;6.93;6.27;;;;;;;;;;5016235;28;20215;-62